Date,TemperatureHighF,TemperatureAvgF,TemperatureLowF,DewpointHighF,DewpointAvgF,DewpointLowF,HumidityHigh,HumidityAvg,HumidityLow,PressureMaxIn,PressureMinIn,WindSpeedMaxMPH,WindSpeedAvgMPH,GustSpeedMaxMPH,PrecipitationSumIn
2013-4-1,73,65,58,55,46,39,80,53,30,29.81,29.70,17,3,17,0.00
2013-4-2,76,67,59,53,47,44,62,50,34,29.81,29.49,17,3,17,0.00
2013-4-3,73,66,60,56,48,42,77,55,35,29.60,29.39,20,5,20,0.00
2013-4-4,73,64,57,46,44,41,61,49,33,29.87,29.60,17,3,17,0.00
2013-4-5,74,65,58,52,46,40,61,51,30,29.89,29.72,20,4,20,0.00
2013-4-6,76,67,59,54,50,47,69,56,44,29.74,29.63,7,1,7,0.00
2013-4-7,74,67,62,58,51,47,71,58,50,29.63,29.23,21,6,21,0.00
2013-4-8,64,61,58,51,48,47,75,63,55,29.82,29.33,19,4,19,0.04
2013-4-9,71,62,55,50,48,46,76,60,43,29.93,29.82,15,2,15,0.00
2013-4-10,74,64,56,51,48,46,72,58,39,29.94,29.84,18,2,18,0.00
2013-4-11,77,66,56,52,48,46,70,55,35,29.96,29.85,11,2,11,0.00
2013-4-12,77,66,58,52,49,43,69,54,39,30.01,29.93,13,2,13,0.00
2013-4-13,78,67,59,51,48,46,64,51,38,30.03,29.98,14,2,14,0.00
2013-4-14,79,68,62,52,49,44,66,52,33,30.03,29.96,18,4,18,0.00
2013-4-15,67,61,58,45,43,39,61,52,40,30.03,29.94,21,6,21,0.00
2013-4-16,67,59,53,45,42,39,72,54,37,30.03,29.94,20,6,20,0.02
2013-4-17,68,61,56,40,35,28,55,39,24,30.04,29.98,19,5,19,0.00
2013-4-18,66,60,55,39,33,28,53,37,24,30.03,29.96,20,6,20,0.00
2013-4-19,64,58,54,45,37,32,63,46,39,29.97,29.89,17,4,17,0.02
2013-4-20,68,60,54,45,40,36,59,47,36,29.99,29.89,14,4,14,0.00
2013-4-21,74,64,55,47,41,37,57,44,30,29.99,29.88,16,3,16,0.00
2013-4-22,77,66,57,50,43,40,58,45,31,30.01,29.93,11,2,11,0.00
2013-4-23,78,67,59,50,45,41,55,46,37,30.16,30.01,14,3,14,0.00
2013-4-24,81,70,59,52,44,36,60,42,21,30.25,30.16,11,3,11,0.00
2013-4-25,84,73,62,50,46,42,48,39,28,30.22,30.08,12,3,12,0.00
2013-4-26,87,74,64,51,46,40,50,37,24,30.10,29.92,10,2,10,0.00
2013-4-27,85,75,64,49,46,40,49,37,25,29.93,29.82,17,2,17,0.00
2013-4-28,85,74,64,54,46,39,61,39,23,29.98,29.86,11,2,11,0.00
2013-4-29,86,75,65,52,46,40,51,38,26,30.03,29.96,12,1,12,0.00
2013-4-30,88,78,66,52,46,43,52,34,25,30.03,29.94,17,4,17,0.00